KCPS/CPS METAR and TAF weather

Enter ICAO airport designator
Station Type Date Time Source
KCPS METAR 2020/01/26 18:53 UTC NOAA

KCPS 261853Z VRB03KT 10SM OVC110 06/00 A2997 RMK AO2 SLP150 T00560000


Station Type Date Time Source
KCPS Decoded METAR 2020/01/26 18:53 UTC NOAA

ST LOUIS DOWNTOWN AIRPORT, IL, United States (KCPS) 38-34N 090-09W 126M
Jan 26, 2020 - 01:53 PM EST / 2020.01.26 1853 UTC
Wind: Variable at 3 MPH (3 KT):0
Visibility: 10 mile(s):0
Sky conditions: overcast
Temperature: 42.1 F (5.6 C)
Dew Point: 32.0 F (0.0 C)
Relative Humidity: 67%
Pressure (altimeter): 29.97 in. Hg (1014 hPa)
ob: KCPS 261853Z VRB03KT 10SM OVC110 06/00 A2997 RMK AO2 SLP150 T00560000
cycle: 19

Station Type Date Time Source
KCPS TAF 2020/01/26 18:36 UTC NOAA

TAF KCPS 261732Z 2618/2718 VRB03KT P6SM BKN100
FM270400 VRB03KT P6SM BKN015
FM270700 VRB04KT 4SM BR OVC008
FM271000 VRB03KT 2SM BR OVC005
FM271600 VRB03KT P6SM OVC008

Example: see airport list